Flag for USA

Past Weather in Yellowstone National Park, Wyoming, USA — Yesterday and Last 2 Weeks

Currently: 73 °F. Sunny. (Weather station: West Yellowstone Airport, USA). See more current weather

Past Weather in Yellowstone National Park — Graph

°F

Yellowstone National Park Temperature Yesterday

Maximum temperature yesterday: 72 °F (at 3:35 pm)
Minimum temperature yesterday: 36 °F (at 5:15 am)
Average temperature yesterday: 56 °F

High & Low Weather Summary for the Past Weeks

 TemperatureHumidityPressure
High77 °F (Jun 6, 3:55 pm)100% (May 29, 12:55 am)30.28 "Hg (May 29, 12:55 am)
Low27 °F (May 31, 5:15 am)17% (May 28, 2:35 pm)29.70 "Hg (Jun 3, 4:35 pm)
Average54 °F63%30.06 "Hg
* Reported May 28 11:15 am — Jun 12 11:55 am, Yellowstone National Park. Weather by CustomWeather, © 2024

Note: Actual official high and low records may vary slightly from our data, if they occured in-between our weather recording intervals... More about our weather records

Yellowstone National Park Weather History for the Previous 24 Hours

Scroll right to see more
 ConditionsComfort  
Time TempWeatherWind HumidityBarometerVisibility
11:55 am
Wed, Jun 12
70 °FSunny.17 mph29%30.10 "Hg10 mi
11:15 am70 °FSunny.17 mph27%30.10 "Hg10 mi
10:55 am70 °FSunny.16 mph31%30.10 "Hg10 mi
10:35 am68 °FSunny.8 mph35%30.10 "Hg10 mi
10:15 am68 °FSunny.13 mph33%30.10 "Hg10 mi
9:55 am66 °FSunny.8 mph37%30.11 "Hg10 mi
9:35 am64 °FSunny.12 mph37%30.11 "Hg10 mi
9:15 am64 °FSunny.12 mph40%30.11 "Hg10 mi
8:55 am63 °FSunny.6 mph42%30.11 "Hg10 mi
8:35 am57 °FSunny.No wind59%30.11 "Hg10 mi
8:15 am55 °FSunny.No wind63%30.11 "Hg10 mi
7:15 am46 °FSunny.No wind93%30.10 "Hg10 mi
6:55 am43 °FSunny.No wind100%30.10 "Hg10 mi
6:35 am39 °FSunny.No wind100%30.10 "Hg10 mi
6:15 am39 °FSunny.No wind100%30.10 "Hg10 mi
5:15 am39 °FClear.No wind100%30.08 "Hg10 mi
4:55 am39 °FClear.No wind100%30.08 "Hg10 mi
4:35 am41 °FClear.No wind100%30.08 "Hg10 mi
3:55 am45 °FClear.3 mph93%30.07 "Hg10 mi
3:35 am46 °FClear.No wind82%30.07 "Hg10 mi
3:15 am52 °FClear.10 mph67%30.06 "Hg10 mi
2:55 am52 °FClear.6 mph67%30.07 "Hg10 mi
2:15 am52 °FClear.3 mph67%30.06 "Hg10 mi
1:35 am48 °FClear.No wind82%30.06 "Hg10 mi
12:55 am54 °FClear.No wind63%30.05 "Hg10 mi
12:35 am59 °FClear.3 mph45%30.05 "Hg10 mi
12:15 am59 °FClear.5 mph45%30.05 "Hg10 mi
11:35 pm
Tue, Jun 11
59 °FPassing clouds.10 mph48%30.04 "Hg10 mi
11:15 pm59 °FPassing clouds.7 mph51%30.04 "Hg10 mi
10:55 pm57 °FPassing clouds.No wind55%30.04 "Hg10 mi
10:15 pm57 °FPassing clouds.6 mph63%30.04 "Hg10 mi
9:55 pm57 °FPassing clouds.No wind67%30.03 "Hg10 mi
9:35 pm59 °FPassing clouds.No wind59%30.04 "Hg10 mi
9:15 pm61 °FPassing clouds.No wind59%30.04 "Hg10 mi
8:55 pm61 °FScattered clouds.No wind59%30.04 "Hg10 mi
8:15 pm66 °FBroken clouds.6 mph40%30.04 "Hg10 mi
7:55 pm68 °FMostly cloudy.14 mph38%30.04 "Hg10 mi
7:15 pm72 °FPassing clouds.15 mph33%30.04 "Hg10 mi
6:55 pm72 °FSunny.17 mph33%30.04 "Hg10 mi
6:35 pm72 °FSunny.16 mph33%30.05 "Hg10 mi
6:15 pm72 °FSunny.17 mph33%30.06 "Hg10 mi
5:55 pm72 °FSunny.17 mph36%30.06 "Hg10 mi
5:35 pm70 °FSunny.22 mph38%30.07 "Hg10 mi
5:15 pm72 °FSunny.22 mph36%30.07 "Hg10 mi
4:35 pm72 °FPassing clouds.15 mph36%30.08 "Hg10 mi
4:15 pm72 °FPassing clouds.21 mph38%30.08 "Hg10 mi
3:55 pm72 °FScattered clouds.15 mph36%30.09 "Hg10 mi
3:35 pm72 °FPartly sunny.18 mph36%30.10 "Hg10 mi
3:15 pm70 °FScattered clouds.15 mph40%30.10 "Hg10 mi
2:35 pm70 °FScattered clouds.13 mph38%30.11 "Hg10 mi
1:35 pm70 °FSunny.16 mph35%30.12 "Hg10 mi
1:15 pm68 °FSunny.15 mph40%30.13 "Hg10 mi
Weather by CustomWeather, © 2024

See weather overview